createdAt,value
2018-04-29T00:00:36.497Z,13.73
2018-04-29T00:01:36.686Z,13.73
2018-04-29T00:02:36.500Z,13.76
2018-04-29T00:03:36.549Z,13.73
2018-04-29T00:04:36.503Z,13.60
2018-04-29T00:05:36.416Z,13.55
2018-04-29T00:06:36.458Z,13.43
2018-04-29T00:07:36.623Z,13.36
2018-04-29T00:08:36.371Z,13.29
2018-04-29T00:09:36.325Z,13.16
2018-04-29T00:10:36.344Z,13.17
2018-04-29T00:11:36.237Z,13.13
2018-04-29T00:12:36.156Z,13.05
2018-04-29T00:13:36.166Z,13.09
2018-04-29T00:14:36.140Z,13.08
2018-04-29T00:15:36.092Z,12.96
2018-04-29T00:16:36.104Z,12.91
2018-04-29T00:17:36.119Z,12.95
2018-04-29T00:18:35.985Z,12.96
2018-04-29T00:19:36.148Z,12.90
2018-04-29T00:20:36.009Z,12.87
2018-04-29T00:21:36.156Z,12.84
2018-04-29T00:22:35.944Z,12.76
2018-04-29T00:23:35.868Z,12.83
2018-04-29T00:24:35.967Z,12.83
2018-04-29T00:25:35.952Z,12.87
2018-04-29T00:26:35.915Z,12.72
2018-04-29T00:27:35.724Z,12.63
2018-04-29T00:28:35.776Z,12.66
2018-04-29T00:29:35.781Z,12.68
2018-04-29T00:30:35.662Z,12.72
2018-04-29T00:31:35.636Z,12.66
2018-04-29T00:32:35.639Z,12.66
2018-04-29T00:33:35.644Z,12.69
2018-04-29T00:34:35.552Z,12.71
2018-04-29T00:35:35.612Z,12.54
2018-04-29T00:36:35.480Z,12.68
2018-04-29T00:37:35.577Z,12.63
2018-04-29T00:38:35.619Z,12.53
2018-04-29T00:39:35.421Z,12.44
2018-04-29T00:40:35.543Z,12.41
2018-04-29T00:41:35.540Z,12.29
2018-04-29T00:42:35.352Z,12.23
2018-04-29T00:43:35.285Z,12.22
2018-04-29T00:44:35.345Z,12.17
2018-04-29T00:45:35.435Z,12.14
2018-04-29T00:46:35.340Z,12.05
2018-04-29T00:47:35.193Z,11.96
2018-04-29T00:48:35.202Z,11.99
2018-04-29T00:49:35.112Z,12.03
2018-04-29T00:50:35.211Z,11.99
2018-04-29T00:51:35.054Z,11.99
2018-04-29T00:52:35.139Z,11.99
2018-04-29T00:53:34.993Z,11.99
2018-04-29T00:54:35.101Z,12.03
2018-04-29T00:55:35.025Z,11.93
2018-04-29T00:56:34.955Z,12.04
2018-04-29T00:57:34.934Z,11.96
2018-04-29T00:58:34.957Z,11.99
2018-04-29T00:59:34.966Z,11.99
2018-04-29T01:00:34.806Z,11.97
2018-04-29T01:01:34.812Z,12.04
2018-04-29T01:02:34.784Z,11.99
2018-04-29T01:03:34.717Z,11.99
2018-04-29T01:04:34.729Z,11.87
2018-04-29T01:05:34.790Z,11.91
2018-04-29T01:06:34.776Z,11.87
2018-04-29T01:07:34.838Z,11.71
2018-04-29T01:08:34.757Z,11.82
2018-04-29T01:09:34.656Z,11.82
2018-04-29T01:10:34.655Z,11.84
2018-04-29T01:11:34.632Z,11.79
2018-04-29T01:12:34.594Z,11.71
2018-04-29T01:13:34.482Z,11.61
2018-04-29T01:14:34.407Z,11.62
2018-04-29T01:15:34.622Z,11.59
2018-04-29T01:16:34.564Z,11.67
2018-04-29T01:17:34.496Z,11.56
2018-04-29T01:18:34.447Z,11.56
2018-04-29T01:19:34.277Z,11.52
2018-04-29T01:20:34.606Z,11.55
2018-04-29T01:21:34.294Z,11.48
2018-04-29T01:22:34.199Z,11.46
2018-04-29T01:23:34.459Z,11.40
2018-04-29T01:24:34.132Z,11.45
2018-04-29T01:25:34.201Z,11.45
2018-04-29T01:26:34.284Z,11.38
2018-04-29T01:27:34.141Z,11.33
2018-04-29T01:28:34.221Z,11.38
2018-04-29T01:29:34.134Z,11.36
2018-04-29T01:30:34.238Z,11.38
2018-04-29T01:31:34.168Z,11.28
2018-04-29T01:32:33.950Z,11.37
2018-04-29T01:33:34.094Z,11.38
2018-04-29T01:34:33.864Z,11.30
2018-04-29T01:35:33.900Z,11.30
2018-04-29T01:36:33.947Z,11.20
2018-04-29T01:37:33.877Z,11.25
2018-04-29T01:38:33.812Z,11.33
2018-04-29T01:39:33.792Z,11.34
2018-04-29T01:40:33.657Z,11.38
2018-04-29T01:41:33.667Z,11.33
2018-04-29T01:42:33.819Z,11.27
2018-04-29T01:43:33.743Z,11.27
2018-04-29T01:44:33.722Z,11.23
2018-04-29T01:45:33.605Z,11.15
2018-04-29T01:46:33.489Z,11.18
2018-04-29T01:47:33.576Z,11.19
2018-04-29T01:48:33.684Z,11.11
2018-04-29T01:49:33.428Z,11.03
2018-04-29T01:50:33.385Z,11.13
2018-04-29T01:51:33.477Z,11.11
2018-04-29T01:52:33.389Z,11.05
2018-04-29T01:53:33.410Z,11.05
2018-04-29T01:54:33.358Z,11.05
2018-04-29T01:55:33.383Z,11.04
2018-04-29T01:56:33.419Z,11.03
2018-04-29T01:57:33.349Z,11.08
2018-04-29T01:58:33.357Z,11.05
2018-04-29T01:59:33.168Z,11.16
2018-04-29T02:00:33.180Z,11.04
2018-04-29T02:01:33.186Z,11.11
2018-04-29T02:02:33.179Z,11.08
2018-04-29T02:03:33.210Z,11.09
2018-04-29T02:04:33.089Z,11.05
2018-04-29T02:05:32.956Z,11.00
2018-04-29T02:06:33.013Z,11.01
2018-04-29T02:07:33.129Z,11.01
2018-04-29T02:08:32.882Z,11.03
2018-04-29T02:09:32.844Z,10.97
2018-04-29T02:10:32.816Z,10.98
2018-04-29T02:11:32.774Z,10.87
2018-04-29T02:12:32.817Z,10.97
2018-04-29T02:13:32.831Z,10.90
2018-04-29T02:14:32.771Z,10.95
2018-04-29T02:15:32.894Z,10.85
2018-04-29T02:16:32.886Z,10.94
2018-04-29T02:17:32.632Z,10.93
2018-04-29T02:18:32.664Z,10.93
2018-04-29T02:19:32.721Z,10.85
2018-04-29T02:20:32.696Z,10.83
2018-04-29T02:21:32.603Z,10.76
2018-04-29T02:22:32.542Z,10.76
2018-04-29T02:23:32.552Z,10.76
2018-04-29T02:24:32.504Z,10.78
2018-04-29T02:25:32.477Z,10.80
2018-04-29T02:26:32.497Z,10.80
2018-04-29T02:27:32.325Z,10.79
2018-04-29T02:28:32.282Z,10.82
2018-04-29T02:29:32.292Z,10.86
2018-04-29T02:30:32.285Z,10.91
2018-04-29T02:31:32.352Z,10.83
2018-04-29T02:32:32.315Z,10.79
2018-04-29T02:33:32.339Z,10.83
2018-04-29T02:34:32.147Z,10.93
2018-04-29T02:35:32.131Z,10.91
2018-04-29T02:36:32.162Z,10.80
2018-04-29T02:37:32.035Z,10.90
2018-04-29T02:38:32.075Z,10.94
2018-04-29T02:39:32.254Z,10.93
2018-04-29T02:40:32.055Z,10.91
2018-04-29T02:41:31.929Z,10.85
2018-04-29T02:42:32.108Z,10.87
2018-04-29T02:43:31.848Z,10.94
2018-04-29T02:44:31.821Z,10.78
2018-04-29T02:45:31.943Z,10.93
2018-04-29T02:46:31.912Z,10.94
2018-04-29T02:47:31.765Z,10.95
2018-04-29T02:48:31.862Z,10.94
2018-04-29T02:49:31.840Z,11.13
2018-04-29T02:50:31.803Z,10.98
2018-04-29T02:51:31.654Z,11.00
2018-04-29T02:52:31.768Z,10.94
2018-04-29T02:53:31.649Z,11.12
2018-04-29T02:54:31.689Z,10.93
2018-04-29T02:55:31.637Z,10.97
2018-04-29T02:56:31.475Z,10.95
2018-04-29T02:57:31.491Z,10.90
2018-04-29T02:58:31.445Z,10.86
2018-04-29T02:59:31.485Z,10.85
2018-04-29T03:00:31.445Z,10.82
2018-04-29T03:01:31.338Z,10.83
2018-04-29T03:02:31.503Z,10.73
2018-04-29T03:03:31.383Z,10.78
2018-04-29T03:04:31.318Z,10.76
2018-04-29T03:05:31.253Z,10.70
2018-04-29T03:06:31.363Z,10.62
2018-04-29T03:07:31.203Z,10.60
2018-04-29T03:08:31.245Z,10.57
2018-04-29T03:09:31.113Z,10.52
2018-04-29T03:10:31.184Z,10.45
2018-04-29T03:11:31.097Z,10.48
2018-04-29T03:12:31.178Z,10.45
2018-04-29T03:13:31.018Z,10.42
2018-04-29T03:14:30.961Z,10.46
2018-04-29T03:15:30.950Z,10.43
2018-04-29T03:16:31.078Z,10.41
2018-04-29T03:17:30.981Z,10.49
2018-04-29T03:18:30.968Z,10.49
2018-04-29T03:19:30.827Z,10.46
2018-04-29T03:20:30.920Z,10.49
2018-04-29T03:21:30.857Z,10.55
2018-04-29T03:22:30.777Z,10.43
2018-04-29T03:23:30.696Z,10.45
2018-04-29T03:24:30.783Z,10.43
2018-04-29T03:25:30.724Z,10.42
2018-04-29T03:26:30.766Z,10.48
2018-04-29T03:27:30.594Z,10.45
2018-04-29T03:28:30.553Z,10.46
2018-04-29T03:29:30.629Z,10.43
2018-04-29T03:30:30.567Z,10.46
2018-04-29T03:31:30.484Z,10.41
2018-04-29T03:32:30.533Z,10.35
2018-04-29T03:33:30.431Z,10.36
2018-04-29T03:34:30.435Z,10.27
2018-04-29T03:35:30.354Z,10.26
2018-04-29T03:36:30.423Z,10.18
2018-04-29T03:37:30.297Z,10.14
2018-04-29T03:38:30.247Z,10.08
2018-04-29T03:39:30.265Z,10.10
2018-04-29T03:40:30.193Z,10.09
2018-04-29T03:41:30.304Z,10.09
2018-04-29T03:42:30.242Z,10.10
2018-04-29T03:43:30.168Z,10.08
2018-04-29T03:44:30.082Z,10.09
2018-04-29T03:45:30.176Z,10.03
2018-04-29T03:46:30.232Z,10.10
2018-04-29T03:47:30.152Z,10.09
2018-04-29T03:48:30.174Z,10.09
2018-04-29T03:49:30.053Z,10.03
2018-04-29T03:50:30.061Z,9.99
2018-04-29T03:51:29.878Z,9.93
2018-04-29T03:52:29.850Z,9.94
2018-04-29T03:53:29.811Z,10.02
2018-04-29T03:54:29.837Z,9.94
2018-04-29T03:55:29.884Z,9.94
2018-04-29T03:56:29.760Z,9.91
2018-04-29T03:57:29.719Z,9.98
2018-04-29T03:58:29.854Z,9.98
2018-04-29T03:59:29.746Z,9.90
2018-04-29T04:00:29.670Z,10.01
2018-04-29T04:01:29.669Z,10.05
2018-04-29T04:02:29.598Z,9.99
2018-04-29T04:03:29.550Z,9.94
2018-04-29T04:04:29.498Z,9.91
2018-04-29T04:05:29.493Z,9.80
2018-04-29T04:06:29.435Z,9.94
2018-04-29T04:07:29.412Z,9.90
2018-04-29T04:08:29.603Z,9.96
2018-04-29T04:09:29.398Z,9.87
2018-04-29T04:10:29.322Z,9.98
2018-04-29T04:11:29.306Z,9.96
2018-04-29T04:12:29.361Z,10.05
2018-04-29T04:13:29.230Z,9.98
2018-04-29T04:14:29.209Z,9.98
2018-04-29T04:15:29.228Z,9.99
2018-04-29T04:16:29.258Z,10.01
2018-04-29T04:17:29.111Z,9.99
2018-04-29T04:18:29.105Z,10.12
2018-04-29T04:19:29.054Z,9.96
2018-04-29T04:20:29.228Z,9.96
2018-04-29T04:21:29.046Z,9.99
2018-04-29T04:22:29.035Z,9.90
2018-04-29T04:23:29.007Z,9.90
2018-04-29T04:24:28.906Z,9.91
2018-04-29T04:25:29.004Z,10.01
2018-04-29T04:26:28.857Z,10.01
2018-04-29T04:27:28.911Z,9.91
2018-04-29T04:28:28.823Z,9.87
2018-04-29T04:29:28.759Z,9.85
2018-04-29T04:30:28.754Z,9.72
2018-04-29T04:31:28.844Z,9.66
2018-04-29T04:32:28.808Z,9.70
2018-04-29T04:33:28.783Z,9.73
2018-04-29T04:34:28.627Z,9.73
2018-04-29T04:35:28.607Z,9.66
2018-04-29T04:36:28.665Z,9.77
2018-04-29T04:37:28.606Z,9.84
2018-04-29T04:38:28.649Z,9.69
2018-04-29T04:39:28.492Z,9.73
2018-04-29T04:40:28.469Z,9.80
2018-04-29T04:41:28.537Z,9.80
2018-04-29T04:42:28.474Z,9.88
2018-04-29T04:43:28.426Z,9.93
2018-04-29T04:44:28.330Z,9.94
2018-04-29T04:45:28.387Z,9.96
2018-04-29T04:46:28.296Z,10.02
2018-04-29T04:47:28.327Z,10.12
2018-04-29T04:48:28.196Z,10.18
2018-04-29T04:49:28.246Z,10.17
2018-04-29T04:50:28.160Z,10.24
2018-04-29T04:51:28.171Z,10.35
2018-04-29T04:52:28.175Z,10.28
2018-04-29T04:53:28.126Z,10.27
2018-04-29T04:54:28.038Z,10.30
2018-04-29T04:55:27.996Z,10.42
2018-04-29T04:56:27.975Z,10.42
2018-04-29T04:57:27.989Z,10.45
2018-04-29T04:58:28.011Z,10.57
2018-04-29T04:59:27.969Z,10.60
2018-04-29T05:00:27.960Z,10.60
2018-04-29T05:01:27.874Z,10.67
2018-04-29T05:02:27.810Z,10.75
2018-04-29T05:03:27.797Z,10.82
2018-04-29T05:04:27.731Z,10.91
2018-04-29T05:05:27.873Z,10.90
2018-04-29T05:06:27.685Z,11.00
2018-04-29T05:07:27.657Z,11.11
2018-04-29T05:08:27.632Z,11.18
2018-04-29T05:09:27.606Z,11.27
2018-04-29T05:10:27.732Z,11.23
2018-04-29T05:11:27.557Z,11.34
2018-04-29T05:12:27.596Z,11.37
2018-04-29T05:13:27.497Z,11.40
2018-04-29T05:14:27.607Z,11.46
2018-04-29T05:15:27.532Z,11.58
2018-04-29T05:16:27.416Z,11.56
2018-04-29T05:17:27.361Z,11.52
2018-04-29T05:18:27.313Z,11.55
2018-04-29T05:19:27.368Z,11.51
2018-04-29T05:20:27.353Z,11.55
2018-04-29T05:21:27.317Z,11.61
2018-04-29T05:22:27.209Z,11.62
2018-04-29T05:23:27.282Z,11.58
2018-04-29T05:24:27.154Z,11.58
2018-04-29T05:25:27.142Z,11.58
2018-04-29T05:26:27.156Z,11.64
2018-04-29T05:27:27.065Z,11.58
2018-04-29T05:28:27.102Z,11.55
2018-04-29T05:29:27.051Z,11.66
2018-04-29T05:30:26.982Z,11.59
2018-04-29T05:31:26.953Z,11.58
2018-04-29T05:32:27.040Z,11.62
2018-04-29T05:33:27.063Z,11.77
2018-04-29T05:34:27.002Z,11.70
2018-04-29T05:35:26.870Z,11.64
2018-04-29T05:36:26.813Z,11.74
2018-04-29T05:37:26.787Z,11.71
2018-04-29T05:38:26.768Z,11.79
2018-04-29T05:39:26.725Z,11.69
2018-04-29T05:40:26.812Z,11.89
2018-04-29T05:41:26.675Z,11.97
2018-04-29T05:42:26.649Z,12.03
2018-04-29T05:43:26.621Z,12.00
2018-04-29T05:44:26.663Z,12.04
2018-04-29T05:45:26.583Z,12.13
2018-04-29T05:46:26.522Z,12.15
2018-04-29T05:47:26.510Z,12.07
2018-04-29T05:48:26.463Z,12.17
2018-04-29T05:49:26.455Z,12.18
2018-04-29T05:50:26.411Z,12.17
2018-04-29T05:51:26.474Z,12.21
2018-04-29T05:52:26.385Z,12.25
2018-04-29T05:53:26.331Z,12.25
2018-04-29T05:54:26.435Z,12.22
2018-04-29T05:55:26.351Z,12.29
2018-04-29T05:56:26.242Z,12.36
2018-04-29T05:57:26.224Z,12.33
2018-04-29T05:58:26.191Z,12.35
2018-04-29T05:59:26.155Z,12.43
2018-04-29T06:00:26.297Z,12.46
2018-04-29T06:01:26.214Z,12.50
2018-04-29T06:02:26.074Z,12.46
2018-04-29T06:03:26.223Z,12.58
2018-04-29T06:04:26.069Z,12.63
2018-04-29T06:05:25.984Z,12.76
2018-04-29T06:06:26.067Z,12.76
2018-04-29T06:07:26.019Z,12.87
2018-04-29T06:08:25.978Z,12.95
2018-04-29T06:09:25.869Z,12.93
2018-04-29T06:10:25.854Z,12.96
2018-04-29T06:11:25.824Z,13.02
2018-04-29T06:12:25.844Z,13.13
2018-04-29T06:13:25.772Z,13.21
2018-04-29T06:14:25.875Z,13.26
2018-04-29T06:15:25.712Z,13.38
2018-04-29T06:16:25.780Z,13.47
2018-04-29T06:17:25.658Z,13.64
2018-04-29T06:18:25.627Z,13.60
2018-04-29T06:19:25.713Z,13.76
2018-04-29T06:20:25.644Z,13.71
2018-04-29T06:21:25.653Z,13.63
2018-04-29T06:22:25.533Z,13.72
2018-04-29T06:23:25.490Z,13.78
2018-04-29T06:24:25.519Z,13.78
2018-04-29T06:25:25.466Z,13.91
2018-04-29T06:26:25.412Z,13.96
2018-04-29T06:27:25.369Z,13.91
2018-04-29T06:28:25.351Z,13.88
2018-04-29T06:29:25.425Z,13.91
2018-04-29T06:30:25.355Z,13.90
2018-04-29T06:31:25.264Z,13.88
2018-04-29T06:32:25.248Z,13.85
2018-04-29T06:33:25.420Z,13.86
2018-04-29T06:34:25.214Z,13.88
2018-04-29T06:35:25.199Z,13.79
2018-04-29T06:36:25.132Z,13.86
2018-04-29T06:37:25.138Z,13.86
2018-04-29T06:38:25.087Z,13.93
2018-04-29T06:39:25.050Z,13.91
2018-04-29T06:40:25.079Z,13.93
2018-04-29T06:41:25.002Z,13.97
2018-04-29T06:42:24.971Z,13.96
2018-04-29T06:43:24.945Z,13.98
2018-04-29T06:44:25.830Z,14.11
2018-04-29T06:45:24.892Z,14.05
2018-04-29T06:46:24.993Z,14.18
2018-04-29T06:47:24.916Z,14.22
2018-04-29T06:48:24.810Z,14.33
2018-04-29T06:49:24.813Z,14.31
2018-04-29T06:50:24.838Z,14.44
2018-04-29T06:51:24.871Z,14.38
2018-04-29T06:52:24.798Z,14.46
2018-04-29T06:53:24.678Z,14.40
2018-04-29T06:54:24.664Z,14.40
2018-04-29T06:55:24.639Z,14.40
2018-04-29T06:56:24.641Z,14.41
2018-04-29T06:57:24.564Z,14.40
2018-04-29T06:58:24.537Z,14.44
2018-04-29T06:59:24.509Z,14.40
2018-04-29T07:00:24.485Z,14.40
2018-04-29T07:01:24.456Z,14.45
2018-04-29T07:02:24.469Z,14.41
2018-04-29T07:03:24.407Z,14.51
2018-04-29T07:04:24.373Z,14.40
2018-04-29T07:05:24.344Z,14.45
2018-04-29T07:06:24.436Z,14.41
2018-04-29T07:07:24.302Z,14.45
2018-04-29T07:08:24.284Z,14.44
2018-04-29T07:09:24.264Z,14.40
2018-04-29T07:10:24.210Z,14.38
2018-04-29T07:11:24.241Z,14.48
2018-04-29T07:12:24.267Z,14.44
2018-04-29T07:13:24.252Z,14.40
2018-04-29T07:14:24.278Z,14.28
2018-04-29T07:15:24.079Z,14.30
2018-04-29T07:16:24.085Z,14.33
2018-04-29T07:17:24.047Z,14.27
2018-04-29T07:18:24.118Z,14.23
2018-04-29T07:19:24.064Z,14.13
2018-04-29T07:20:24.019Z,14.13
2018-04-29T07:21:23.916Z,14.09
2018-04-29T07:22:23.959Z,14.11
2018-04-29T07:23:23.874Z,14.12
2018-04-29T07:24:23.843Z,14.22
2018-04-29T07:25:23.963Z,14.13
2018-04-29T07:26:23.790Z,14.15
2018-04-29T07:27:23.756Z,14.18
2018-04-29T07:28:23.823Z,14.11
2018-04-29T07:29:23.707Z,14.15
2018-04-29T07:30:23.668Z,14.09
2018-04-29T07:31:23.648Z,14.26
2018-04-29T07:32:23.639Z,14.23
2018-04-29T07:33:23.595Z,14.01
2018-04-29T07:34:23.568Z,13.97
2018-04-29T07:35:23.545Z,13.98
2018-04-29T07:36:23.517Z,13.98
2018-04-29T07:37:23.487Z,14.03
2018-04-29T07:38:23.529Z,13.98
2018-04-29T07:39:23.436Z,13.98
2018-04-29T07:40:23.404Z,14.09
2018-04-29T07:41:23.387Z,13.98
2018-04-29T07:42:23.345Z,14.11
2018-04-29T07:43:23.320Z,14.19
2018-04-29T07:44:23.299Z,14.16
2018-04-29T07:45:23.265Z,14.31
2018-04-29T07:46:23.308Z,14.38
2018-04-29T07:47:23.246Z,14.49
2018-04-29T07:48:23.187Z,14.55
2018-04-29T07:49:23.204Z,14.59
2018-04-29T07:50:23.134Z,14.64
2018-04-29T07:51:23.112Z,14.74
2018-04-29T07:52:23.092Z,14.78
2018-04-29T07:53:23.081Z,14.87
2018-04-29T07:54:23.033Z,14.97
2018-04-29T07:55:22.999Z,14.96
2018-04-29T07:56:22.975Z,15.04
2018-04-29T07:57:22.946Z,15.14
2018-04-29T07:58:22.920Z,15.14
2018-04-29T07:59:22.895Z,15.12
2018-04-29T08:00:22.936Z,15.04
2018-04-29T08:01:22.841Z,15.08
2018-04-29T08:02:22.814Z,15.11
2018-04-29T08:03:22.789Z,15.10
2018-04-29T08:04:22.774Z,15.20
2018-04-29T08:05:22.878Z,15.36
2018-04-29T08:06:22.717Z,15.43
2018-04-29T08:07:22.685Z,15.48
2018-04-29T08:08:22.671Z,15.45
2018-04-29T08:09:22.645Z,15.43
2018-04-29T08:10:22.613Z,15.43
2018-04-29T08:11:22.584Z,15.36
2018-04-29T08:12:22.561Z,15.38
2018-04-29T08:13:22.535Z,15.30
2018-04-29T08:14:22.503Z,15.26
2018-04-29T08:15:22.506Z,15.12
2018-04-29T08:16:22.454Z,15.10
2018-04-29T08:17:22.436Z,15.07
2018-04-29T08:18:22.470Z,15.10
2018-04-29T08:19:22.376Z,15.19
2018-04-29T08:20:22.355Z,15.15
2018-04-29T08:21:22.332Z,15.08
2018-04-29T08:22:22.297Z,15.15
2018-04-29T08:23:22.280Z,14.99
2018-04-29T08:24:22.245Z,14.97
2018-04-29T08:25:22.230Z,15.10
2018-04-29T08:26:22.197Z,15.29
2018-04-29T08:27:22.171Z,15.35
2018-04-29T08:28:22.230Z,15.30
2018-04-29T08:29:22.199Z,15.43
2018-04-29T08:30:22.091Z,15.43
2018-04-29T08:31:22.270Z,15.45
2018-04-29T08:32:22.047Z,15.35
2018-04-29T08:33:22.011Z,15.33
2018-04-29T08:34:22.090Z,15.22
2018-04-29T08:35:21.962Z,15.12
2018-04-29T08:36:21.933Z,15.04
2018-04-29T08:37:21.907Z,15.01
2018-04-29T08:38:21.878Z,15.04
2018-04-29T08:39:21.861Z,15.04
2018-04-29T08:40:21.830Z,15.07
2018-04-29T08:41:21.810Z,14.90
2018-04-29T08:42:21.780Z,14.87
2018-04-29T08:43:21.884Z,14.93
2018-04-29T08:44:21.733Z,14.96
2018-04-29T08:45:21.705Z,14.95
2018-04-29T08:46:21.681Z,15.04
2018-04-29T08:47:21.656Z,15.05
2018-04-29T08:48:21.626Z,14.96
2018-04-29T08:49:21.603Z,15.07
2018-04-29T08:50:21.570Z,15.08
2018-04-29T08:51:21.545Z,15.08
2018-04-29T08:52:21.522Z,15.08
2018-04-29T08:53:21.517Z,15.10
2018-04-29T08:54:21.464Z,15.11
2018-04-29T08:55:21.443Z,15.04
2018-04-29T08:56:21.419Z,14.99
2018-04-29T08:57:21.386Z,14.99
2018-04-29T08:58:21.361Z,14.99
2018-04-29T08:59:21.383Z,14.99
2018-04-29T09:00:21.311Z,14.92
2018-04-29T09:01:21.296Z,14.82
2018-04-29T09:02:21.268Z,14.78
2018-04-29T09:03:21.228Z,14.78
2018-04-29T09:04:21.207Z,14.92
2018-04-29T09:05:21.178Z,14.86
2018-04-29T09:06:21.153Z,15.04
2018-04-29T09:07:21.211Z,15.05
2018-04-29T09:08:21.151Z,15.11
2018-04-29T09:09:21.071Z,15.14
2018-04-29T09:10:21.059Z,15.29
2018-04-29T09:11:21.017Z,15.41
2018-04-29T09:12:21.122Z,15.44
2018-04-29T09:13:20.965Z,15.51
2018-04-29T09:14:21.059Z,15.60
2018-04-29T09:15:20.919Z,15.63
2018-04-29T09:16:20.889Z,15.85
2018-04-29T09:17:20.862Z,16.05
2018-04-29T09:18:20.840Z,16.14
2018-04-29T09:19:20.817Z,16.09
2018-04-29T09:20:20.783Z,16.25
2018-04-29T09:21:20.886Z,16.33
2018-04-29T09:22:20.736Z,16.42
2018-04-29T09:23:20.701Z,16.36
2018-04-29T09:24:20.702Z,16.10
2018-04-29T09:25:20.649Z,16.22
2018-04-29T09:26:20.626Z,16.32
2018-04-29T09:27:20.613Z,16.51
2018-04-29T09:28:20.582Z,16.52
2018-04-29T09:29:20.547Z,16.51
2018-04-29T09:30:20.525Z,16.49
2018-04-29T09:31:20.546Z,16.49
2018-04-29T09:32:20.487Z,16.22
2018-04-29T09:33:20.459Z,16.32
2018-04-29T09:34:20.432Z,16.34
2018-04-29T09:35:20.402Z,16.24
2018-04-29T09:36:20.378Z,16.36
2018-04-29T09:37:20.348Z,16.47
2018-04-29T09:38:20.330Z,16.61
2018-04-29T09:39:20.339Z,16.55
2018-04-29T09:40:20.302Z,16.51
2018-04-29T09:41:20.263Z,16.64
2018-04-29T09:42:20.244Z,16.80
2018-04-29T09:43:20.269Z,16.74
2018-04-29T09:44:20.184Z,16.94
2018-04-29T09:45:20.192Z,17.30
2018-04-29T09:46:20.228Z,17.34
2018-04-29T09:47:20.111Z,17.34
2018-04-29T09:48:20.081Z,17.56
2018-04-29T09:49:20.058Z,17.50
2018-04-29T09:50:20.035Z,17.52
2018-04-29T09:51:20.008Z,17.59
2018-04-29T09:52:19.990Z,17.53
2018-04-29T09:53:20.054Z,17.52
2018-04-29T09:54:19.931Z,17.50
2018-04-29T09:55:19.988Z,17.78
2018-04-29T09:56:19.894Z,17.84
2018-04-29T09:57:19.867Z,17.69
2018-04-29T09:58:19.845Z,17.78
2018-04-29T09:59:19.875Z,18.12
2018-04-29T10:00:19.795Z,18.21
2018-04-29T10:01:19.805Z,18.17
2018-04-29T10:02:19.751Z,18.17
2018-04-29T10:03:19.726Z,18.31
2018-04-29T10:04:19.697Z,18.51
2018-04-29T10:05:19.675Z,18.39
2018-04-29T10:06:19.653Z,18.42
2018-04-29T10:07:19.632Z,18.41
2018-04-29T10:08:19.600Z,18.23
2018-04-29T10:09:19.576Z,17.88
2018-04-29T10:10:19.571Z,18.11
2018-04-29T10:11:19.591Z,18.17
2018-04-29T10:12:19.510Z,18.20
2018-04-29T10:13:19.491Z,18.18
2018-04-29T10:14:19.474Z,18.13
2018-04-29T10:15:19.440Z,18.13
2018-04-29T10:16:19.571Z,18.20
2018-04-29T10:17:19.398Z,18.18
2018-04-29T10:18:19.368Z,17.65
2018-04-29T10:19:19.340Z,17.65
2018-04-29T10:20:19.327Z,17.73
2018-04-29T10:21:19.296Z,17.91
2018-04-29T10:22:19.275Z,17.94
2018-04-29T10:23:19.263Z,18.03
2018-04-29T10:24:19.242Z,18.12
2018-04-29T10:25:19.212Z,18.08
2018-04-29T10:26:19.187Z,18.17
2018-04-29T10:27:19.179Z,18.11
2018-04-29T10:28:19.144Z,18.21
2018-04-29T10:29:19.116Z,18.28
2018-04-29T10:30:19.095Z,18.71
2018-04-29T10:31:19.090Z,18.89
2018-04-29T10:32:19.114Z,18.89
2018-04-29T10:33:19.080Z,19.19
2018-04-29T10:34:19.001Z,19.35
2018-04-29T10:35:18.981Z,19.26
2018-04-29T10:36:18.968Z,19.22
2018-04-29T10:37:18.932Z,19.45
2018-04-29T10:38:18.906Z,19.49
2018-04-29T10:39:18.894Z,19.22
2018-04-29T10:40:18.868Z,19.38
2018-04-29T10:41:18.844Z,19.47
2018-04-29T10:42:18.821Z,19.38
2018-04-29T10:43:18.805Z,19.53
2018-04-29T10:44:18.922Z,19.52
2018-04-29T10:45:18.746Z,19.39
2018-04-29T10:46:18.725Z,19.54
2018-04-29T10:47:18.709Z,19.35
2018-04-29T10:48:18.694Z,19.49
2018-04-29T10:49:18.666Z,19.52
2018-04-29T10:50:18.640Z,19.39
2018-04-29T10:51:18.622Z,18.98
2018-04-29T10:52:18.597Z,18.88
2018-04-29T10:53:18.573Z,18.78
2018-04-29T10:54:18.555Z,18.39
2018-04-29T10:55:18.535Z,18.66
2018-04-29T10:56:18.513Z,18.93
2018-04-29T10:57:18.493Z,19.04
2018-04-29T10:58:18.464Z,19.04
2018-04-29T10:59:18.437Z,18.81
2018-04-29T11:00:18.414Z,18.93
2018-04-29T11:01:18.395Z,18.93
2018-04-29T11:02:18.373Z,19.08
2018-04-29T11:03:18.352Z,19.27
2018-04-29T11:04:18.469Z,19.31
2018-04-29T11:05:18.296Z,19.20
2018-04-29T11:06:18.279Z,19.41
2018-04-29T11:07:18.259Z,19.60
2018-04-29T11:08:18.239Z,19.74
2018-04-29T11:09:18.213Z,19.99
2018-04-29T11:10:18.236Z,20.29
2018-04-29T11:11:18.171Z,20.42
2018-04-29T11:12:18.158Z,20.39
2018-04-29T11:13:18.183Z,20.19
2018-04-29T11:14:18.106Z,20.18
2018-04-29T11:15:18.108Z,20.32
2018-04-29T11:16:18.086Z,20.68
2018-04-29T11:17:18.045Z,20.97
2018-04-29T11:18:18.011Z,20.83
2018-04-29T11:19:18.012Z,20.75
2018-04-29T11:20:17.972Z,20.52
2018-04-29T11:21:17.993Z,20.32
2018-04-29T11:22:18.062Z,19.99
2018-04-29T11:23:17.984Z,19.87
2018-04-29T11:24:17.997Z,20.00
2018-04-29T11:25:17.865Z,20.22
2018-04-29T11:26:17.843Z,20.33
2018-04-29T11:27:17.833Z,20.58
2018-04-29T11:28:17.817Z,20.79
2018-04-29T11:29:17.786Z,20.85
2018-04-29T11:30:17.760Z,20.92
2018-04-29T11:31:17.740Z,21.04
2018-04-29T11:32:17.709Z,21.16
2018-04-29T11:33:17.683Z,21.05
2018-04-29T11:34:17.670Z,21.13
2018-04-29T11:35:17.722Z,21.19
2018-04-29T11:36:17.624Z,21.35
2018-04-29T11:37:17.601Z,21.65
2018-04-29T11:38:17.579Z,21.98
2018-04-29T11:39:17.568Z,21.82
2018-04-29T11:40:17.619Z,21.94
2018-04-29T11:41:17.574Z,21.85
2018-04-29T11:42:17.500Z,22.11
2018-04-29T11:43:17.568Z,22.37
2018-04-29T11:44:17.467Z,22.04
2018-04-29T11:45:17.436Z,21.60
2018-04-29T11:46:17.414Z,21.41
2018-04-29T11:47:17.515Z,21.60
2018-04-29T11:48:17.388Z,21.38
2018-04-29T11:49:17.382Z,21.62
2018-04-29T11:50:17.371Z,21.66
2018-04-29T11:51:17.323Z,21.66
2018-04-29T11:52:17.292Z,21.48
2018-04-29T11:53:17.296Z,21.73
2018-04-29T11:54:17.258Z,21.78
2018-04-29T11:55:17.226Z,21.94
2018-04-29T11:56:17.256Z,22.13
2018-04-29T11:57:17.188Z,21.78
2018-04-29T11:58:17.165Z,21.82
2018-04-29T11:59:17.149Z,21.91
2018-04-29T12:00:17.132Z,21.84
2018-04-29T12:01:17.106Z,22.25
2018-04-29T12:02:17.171Z,22.85
2018-04-29T12:03:17.073Z,23.28
2018-04-29T12:04:17.210Z,23.48
2018-04-29T12:05:17.025Z,24.16
2018-04-29T12:06:17.008Z,25.12
2018-04-29T12:07:16.995Z,25.03
2018-04-29T12:08:16.971Z,25.37
2018-04-29T12:09:16.953Z,25.59
2018-04-29T12:10:16.938Z,25.88
2018-04-29T12:11:16.911Z,25.82
2018-04-29T12:12:16.885Z,25.81
2018-04-29T12:13:16.874Z,24.91
2018-04-29T12:14:16.851Z,25.06
2018-04-29T12:15:16.831Z,25.03
2018-04-29T12:16:16.830Z,24.70
2018-04-29T12:17:16.797Z,24.03
2018-04-29T12:18:16.786Z,24.31
2018-04-29T12:19:16.775Z,24.37
2018-04-29T12:20:16.755Z,24.62
2018-04-29T12:21:16.733Z,24.78
2018-04-29T12:22:16.714Z,24.78
2018-04-29T12:23:16.702Z,25.37
2018-04-29T12:24:16.680Z,25.18
2018-04-29T12:25:16.667Z,25.37
2018-04-29T12:26:16.646Z,25.34
2018-04-29T12:27:16.624Z,24.99
2018-04-29T12:28:16.616Z,25.01
2018-04-29T12:29:16.595Z,24.78
2018-04-29T12:30:16.579Z,23.74
2018-04-29T12:31:16.600Z,23.74
2018-04-29T12:32:16.553Z,24.55
2018-04-29T12:33:16.531Z,24.70
2018-04-29T12:34:16.507Z,24.23
2018-04-29T12:35:16.581Z,24.26
2018-04-29T12:36:16.484Z,23.88
2018-04-29T12:37:16.468Z,24.51
2018-04-29T12:38:16.452Z,25.26
2018-04-29T12:39:16.435Z,25.37
2018-04-29T12:40:16.416Z,26.04
2018-04-29T12:41:16.397Z,25.22
2018-04-29T12:42:16.387Z,25.14
2018-04-29T12:43:16.363Z,25.36
2018-04-29T12:44:16.358Z,25.22
2018-04-29T12:45:16.342Z,24.58
2018-04-29T12:46:16.318Z,25.15
2018-04-29T12:47:16.338Z,25.85
2018-04-29T12:48:16.280Z,26.88
2018-04-29T12:49:16.267Z,27.42
2018-04-29T12:50:16.282Z,26.86
2018-04-29T12:51:16.238Z,26.42
2018-04-29T12:52:16.320Z,26.26
2018-04-29T12:53:16.205Z,27.19
2018-04-29T12:54:16.194Z,26.85